sensor_id;sensor_type;location;lat;lon;timestamp;P1;durP1;ratioP1;P2;durP2;ratioP2
32106;SDS011;18622;51.998;10.440;2023-11-18T04:32:18;61.88;;;23.73;;
32106;SDS011;18622;51.998;10.440;2023-11-18T04:34:46;74.30;;;27.53;;
32106;SDS011;18622;51.998;10.440;2023-11-18T04:37:15;73.42;;;27.35;;
32106;SDS011;18622;51.998;10.440;2023-11-18T04:39:43;84.55;;;26.48;;
32106;SDS011;18622;51.998;10.440;2023-11-18T04:42:12;79.40;;;27.45;;
32106;SDS011;18622;51.998;10.440;2023-11-18T04:44:40;91.92;;;27.95;;
32106;SDS011;18622;51.998;10.440;2023-11-18T04:47:07;100.67;;;30.37;;
32106;SDS011;18622;51.998;10.440;2023-11-18T04:49:36;104.15;;;30.20;;
32106;SDS011;18622;51.998;10.440;2023-11-18T04:52:05;110.60;;;31.35;;
32106;SDS011;18622;51.998;10.440;2023-11-18T04:54:32;109.73;;;31.10;;
32106;SDS011;18622;51.998;10.440;2023-11-18T04:57:00;131.30;;;33.57;;
32106;SDS011;18622;51.998;10.440;2023-11-18T04:59:28;128.97;;;32.90;;
32106;SDS011;18622;51.998;10.440;2023-11-18T05:01:58;129.93;;;32.45;;
32106;SDS011;18622;51.998;10.440;2023-11-18T05:04:27;126.05;;;33.28;;
32106;SDS011;18622;51.998;10.440;2023-11-18T05:06:55;141.03;;;33.83;;
32106;SDS011;18622;51.998;10.440;2023-11-18T05:09:23;130.37;;;34.87;;
32106;SDS011;18622;51.998;10.440;2023-11-18T05:11:51;144.63;;;36.53;;
32106;SDS011;18622;51.998;10.440;2023-11-18T05:14:19;146.27;;;35.83;;
32106;SDS011;18622;51.998;10.440;2023-11-18T05:16:47;155.23;;;36.80;;
32106;SDS011;18622;51.998;10.440;2023-11-18T05:19:15;156.67;;;36.97;;
32106;SDS011;18622;51.998;10.440;2023-11-18T05:21:42;156.30;;;37.63;;
32106;SDS011;18622;51.998;10.440;2023-11-18T05:24:12;145.00;;;35.60;;
32106;SDS011;18622;51.998;10.440;2023-11-18T05:26:40;158.35;;;34.63;;
32106;SDS011;18622;51.998;10.440;2023-11-18T05:29:08;160.37;;;34.90;;
32106;SDS011;18622;51.998;10.440;2023-11-18T05:31:36;141.77;;;33.27;;
32106;SDS011;18622;51.998;10.440;2023-11-18T05:34:04;158.37;;;32.93;;
32106;SDS011;18622;51.998;10.440;2023-11-18T05:36:32;166.28;;;33.80;;
32106;SDS011;18622;51.998;10.440;2023-11-18T05:39:02;187.07;;;35.33;;
32106;SDS011;18622;51.998;10.440;2023-11-18T05:41:30;183.07;;;36.98;;
32106;SDS011;18622;51.998;10.440;2023-11-18T05:44:00;180.63;;;37.42;;
32106;SDS011;18622;51.998;10.440;2023-11-18T05:46:28;189.97;;;38.47;;
32106;SDS011;18622;51.998;10.440;2023-11-18T05:48:55;176.13;;;39.17;;
32106;SDS011;18622;51.998;10.440;2023-11-18T05:51:26;191.57;;;38.42;;
32106;SDS011;18622;51.998;10.440;2023-11-18T05:53:55;193.90;;;39.25;;
32106;SDS011;18622;51.998;10.440;2023-11-18T05:56:23;202.33;;;40.40;;
32106;SDS011;18622;51.998;10.440;2023-11-18T05:58:51;173.93;;;40.10;;
32106;SDS011;18622;51.998;10.440;2023-11-18T06:01:22;176.78;;;40.43;;
32106;SDS011;18622;51.998;10.440;2023-11-18T06:03:52;196.47;;;37.33;;
32106;SDS011;18622;51.998;10.440;2023-11-18T06:06:20;197.60;;;38.73;;
32106;SDS011;18622;51.998;10.440;2023-11-18T06:08:48;172.23;;;38.00;;
32106;SDS011;18622;51.998;10.440;2023-11-18T06:11:16;167.80;;;34.73;;
32106;SDS011;18622;51.998;10.440;2023-11-18T06:13:46;164.55;;;31.97;;
32106;SDS011;18622;51.998;10.440;2023-11-18T06:16:15;166.20;;;30.82;;
32106;SDS011;18622;51.998;10.440;2023-11-18T06:18:52;162.32;;;31.12;;
32106;SDS011;18622;51.998;10.440;2023-11-18T06:21:21;136.72;;;27.30;;
32106;SDS011;18622;51.998;10.440;2023-11-18T06:26:17;149.80;;;29.10;;
32106;SDS011;18622;51.998;10.440;2023-11-18T06:28:45;148.20;;;29.90;;
32106;SDS011;18622;51.998;10.440;2023-11-18T06:31:15;172.60;;;31.80;;
32106;SDS011;18622;51.998;10.440;2023-11-18T06:33:44;181.10;;;30.80;;
32106;SDS011;18622;51.998;10.440;2023-11-18T06:38:52;173.20;;;31.23;;
32106;SDS011;18622;51.998;10.440;2023-11-18T06:43:45;165.82;;;28.70;;
32106;SDS011;18622;51.998;10.440;2023-11-18T06:46:27;164.25;;;30.55;;
32106;SDS011;18622;51.998;10.440;2023-11-18T06:48:58;165.07;;;28.37;;
32106;SDS011;18622;51.998;10.440;2023-11-18T06:51:27;163.50;;;27.80;;
32106;SDS011;18622;51.998;10.440;2023-11-18T06:53:56;163.17;;;28.80;;
32106;SDS011;18622;51.998;10.440;2023-11-18T06:56:24;182.47;;;31.73;;
32106;SDS011;18622;51.998;10.440;2023-11-18T06:58:53;179.57;;;31.48;;
32106;SDS011;18622;51.998;10.440;2023-11-18T07:01:21;178.53;;;31.23;;
32106;SDS011;18622;51.998;10.440;2023-11-18T07:03:49;178.03;;;31.33;;
32106;SDS011;18622;51.998;10.440;2023-11-18T07:06:20;156.97;;;28.65;;
32106;SDS011;18622;51.998;10.440;2023-11-18T07:08:52;164.07;;;29.05;;
32106;SDS011;18622;51.998;10.440;2023-11-18T07:11:21;195.50;;;35.03;;
32106;SDS011;18622;51.998;10.440;2023-11-18T07:13:49;201.83;;;38.23;;
32106;SDS011;18622;51.998;10.440;2023-11-18T07:16:18;145.07;;;29.67;;
32106;SDS011;18622;51.998;10.440;2023-11-18T07:18:46;201.20;;;39.37;;
32106;SDS011;18622;51.998;10.440;2023-11-18T07:21:14;213.03;;;46.47;;
32106;SDS011;18622;51.998;10.440;2023-11-18T07:23:42;216.37;;;46.37;;
32106;SDS011;18622;51.998;10.440;2023-11-18T07:26:09;205.77;;;42.43;;
32106;SDS011;18622;51.998;10.440;2023-11-18T07:28:37;195.53;;;36.27;;
32106;SDS011;18622;51.998;10.440;2023-11-18T07:31:05;212.77;;;37.33;;
32106;SDS011;18622;51.998;10.440;2023-11-18T07:33:34;206.50;;;35.77;;
32106;SDS011;18622;51.998;10.440;2023-11-18T07:36:03;185.43;;;33.63;;
32106;SDS011;18622;51.998;10.440;2023-11-18T07:38:32;171.10;;;31.42;;
32106;SDS011;18622;51.998;10.440;2023-11-18T07:41:00;180.60;;;34.73;;
32106;SDS011;18622;51.998;10.440;2023-11-18T07:43:28;181.67;;;35.68;;
32106;SDS011;18622;51.998;10.440;2023-11-18T07:45:56;185.53;;;33.80;;
32106;SDS011;18622;51.998;10.440;2023-11-18T07:48:24;188.90;;;34.40;;
32106;SDS011;18622;51.998;10.440;2023-11-18T07:50:52;176.20;;;32.87;;
32106;SDS011;18622;51.998;10.440;2023-11-18T07:53:19;194.90;;;43.30;;
32106;SDS011;18622;51.998;10.440;2023-11-18T07:55:47;150.00;;;36.23;;
32106;SDS011;18622;51.998;10.440;2023-11-18T07:58:16;129.50;;;30.50;;
32106;SDS011;18622;51.998;10.440;2023-11-18T08:00:45;144.80;;;39.48;;
32106;SDS011;18622;51.998;10.440;2023-11-18T08:03:13;131.32;;;33.88;;
32106;SDS011;18622;51.998;10.440;2023-11-18T08:05:42;122.83;;;30.30;;
32106;SDS011;18622;51.998;10.440;2023-11-18T08:10:41;132.22;;;36.17;;
32106;SDS011;18622;51.998;10.440;2023-11-18T08:13:10;99.52;;;26.20;;
32106;SDS011;18622;51.998;10.440;2023-11-18T08:15:39;119.80;;;27.58;;
32106;SDS011;18622;51.998;10.440;2023-11-18T08:18:08;105.17;;;26.17;;
32106;SDS011;18622;51.998;10.440;2023-11-18T08:20:38;94.30;;;23.92;;
32106;SDS011;18622;51.998;10.440;2023-11-18T08:23:07;81.02;;;23.40;;
32106;SDS011;18622;51.998;10.440;2023-11-18T08:25:35;83.70;;;22.27;;
32106;SDS011;18622;51.998;10.440;2023-11-18T08:28:03;69.33;;;18.30;;
32106;SDS011;18622;51.998;10.440;2023-11-18T08:30:33;67.70;;;18.55;;
32106;SDS011;18622;51.998;10.440;2023-11-18T08:33:01;72.35;;;18.23;;
32106;SDS011;18622;51.998;10.440;2023-11-18T08:35:30;66.20;;;18.05;;
32106;SDS011;18622;51.998;10.440;2023-11-18T08:37:58;69.27;;;19.00;;
32106;SDS011;18622;51.998;10.440;2023-11-18T08:40:27;62.93;;;18.05;;
32106;SDS011;18622;51.998;10.440;2023-11-18T08:42:54;66.80;;;18.27;;
32106;SDS011;18622;51.998;10.440;2023-11-18T08:45:25;51.65;;;16.80;;
32106;SDS011;18622;51.998;10.440;2023-11-18T08:47:55;62.57;;;19.23;;
32106;SDS011;18622;51.998;10.440;2023-11-18T08:50:24;60.17;;;18.42;;
32106;SDS011;18622;51.998;10.440;2023-11-18T08:55:22;52.27;;;14.53;;
32106;SDS011;18622;51.998;10.440;2023-11-18T08:57:52;50.10;;;17.07;;
32106;SDS011;18622;51.998;10.440;2023-11-18T09:00:26;38.67;;;15.07;;
32106;SDS011;18622;51.998;10.440;2023-11-18T09:03:16;30.27;;;13.57;;
32106;SDS011;18622;51.998;10.440;2023-11-18T09:05:47;31.07;;;12.93;;
32106;SDS011;18622;51.998;10.440;2023-11-18T09:08:16;30.48;;;13.75;;
32106;SDS011;18622;51.998;10.440;2023-11-18T09:10:45;25.40;;;10.95;;
32106;SDS011;18622;51.998;10.440;2023-11-18T09:13:13;23.03;;;10.93;;
32106;SDS011;18622;51.998;10.440;2023-11-18T09:15:41;24.37;;;12.40;;
32106;SDS011;18622;51.998;10.440;2023-11-18T09:18:08;20.40;;;10.80;;
32106;SDS011;18622;51.998;10.440;2023-11-18T09:20:36;17.27;;;9.80;;
32106;SDS011;18622;51.998;10.440;2023-11-18T09:23:05;16.37;;;10.08;;
32106;SDS011;18622;51.998;10.440;2023-11-18T09:25:34;18.70;;;10.00;;
32106;SDS011;18622;51.998;10.440;2023-11-18T09:28:02;17.62;;;9.15;;
32106;SDS011;18622;51.998;10.440;2023-11-18T09:30:30;14.17;;;8.63;;
32106;SDS011;18622;51.998;10.440;2023-11-18T09:32:59;14.00;;;8.85;;
32106;SDS011;18622;51.998;10.440;2023-11-18T09:35:28;16.67;;;8.07;;
32106;SDS011;18622;51.998;10.440;2023-11-18T09:37:58;13.75;;;8.13;;
32106;SDS011;18622;51.998;10.440;2023-11-18T09:40:26;13.10;;;7.33;;
32106;SDS011;18622;51.998;10.440;2023-11-18T09:42:58;9.83;;;6.87;;
32106;SDS011;18622;51.998;10.440;2023-11-18T09:45:27;9.88;;;6.33;;
32106;SDS011;18622;51.998;10.440;2023-11-18T09:47:55;10.87;;;6.87;;
32106;SDS011;18622;51.998;10.440;2023-11-18T09:50:24;9.95;;;5.97;;
32106;SDS011;18622;51.998;10.440;2023-11-18T09:52:55;10.93;;;7.05;;
32106;SDS011;18622;51.998;10.440;2023-11-18T09:55:38;10.35;;;6.72;;
32106;SDS011;18622;51.998;10.440;2023-11-18T09:58:07;11.30;;;6.50;;
32106;SDS011;18622;51.998;10.440;2023-11-18T10:00:39;7.83;;;5.67;;
32106;SDS011;18622;51.998;10.440;2023-11-18T10:03:08;7.97;;;5.00;;
32106;SDS011;18622;51.998;10.440;2023-11-18T10:05:40;7.90;;;5.00;;
32106;SDS011;18622;51.998;10.440;2023-11-18T10:08:08;6.47;;;4.87;;
32106;SDS011;18622;51.998;10.440;2023-11-18T10:10:35;7.37;;;5.00;;
32106;SDS011;18622;51.998;10.440;2023-11-18T10:13:04;7.65;;;5.25;;
32106;SDS011;18622;51.998;10.440;2023-11-18T10:15:36;16.45;;;5.08;;
32106;SDS011;18622;51.998;10.440;2023-11-18T10:18:05;7.50;;;4.97;;
32106;SDS011;18622;51.998;10.440;2023-11-18T10:20:42;6.97;;;4.57;;
32106;SDS011;18622;51.998;10.440;2023-11-18T10:23:16;7.67;;;4.10;;
32106;SDS011;18622;51.998;10.440;2023-11-18T10:25:46;5.20;;;3.72;;
32106;SDS011;18622;51.998;10.440;2023-11-18T10:28:28;5.37;;;3.40;;
32106;SDS011;18622;51.998;10.440;2023-11-18T10:31:02;7.43;;;4.17;;
32106;SDS011;18622;51.998;10.440;2023-11-18T10:33:31;4.17;;;3.37;;
32106;SDS011;18622;51.998;10.440;2023-11-18T10:36:03;6.13;;;3.80;;
32106;SDS011;18622;51.998;10.440;2023-11-18T10:38:42;10.75;;;4.95;;
32106;SDS011;18622;51.998;10.440;2023-11-18T10:41:14;6.13;;;4.13;;
32106;SDS011;18622;51.998;10.440;2023-11-18T10:43:42;5.33;;;3.50;;
32106;SDS011;18622;51.998;10.440;2023-11-18T10:46:11;5.73;;;3.70;;
32106;SDS011;18622;51.998;10.440;2023-11-18T10:48:47;7.07;;;4.60;;
32106;SDS011;18622;51.998;10.440;2023-11-18T10:51:16;9.98;;;6.53;;
32106;SDS011;18622;51.998;10.440;2023-11-18T10:53:48;9.43;;;6.10;;
32106;SDS011;18622;51.998;10.440;2023-11-18T10:56:29;7.70;;;5.23;;
32106;SDS011;18622;51.998;10.440;2023-11-18T11:01:33;6.17;;;4.85;;
32106;SDS011;18622;51.998;10.440;2023-11-18T11:04:06;6.45;;;4.87;;
32106;SDS011;18622;51.998;10.440;2023-11-18T11:06:39;8.55;;;5.42;;
32106;SDS011;18622;51.998;10.440;2023-11-18T11:09:08;7.90;;;4.53;;
32106;SDS011;18622;51.998;10.440;2023-11-18T11:14:09;6.10;;;4.10;;
32106;SDS011;18622;51.998;10.440;2023-11-18T11:16:41;5.80;;;4.10;;
32106;SDS011;18622;51.998;10.440;2023-11-18T11:19:33;5.40;;;3.72;;
32106;SDS011;18622;51.998;10.440;2023-11-18T11:22:06;5.63;;;3.97;;
32106;SDS011;18622;51.998;10.440;2023-11-18T11:27:33;8.07;;;5.03;;
32106;SDS011;18622;51.998;10.440;2023-11-18T11:30:02;9.45;;;4.33;;
32106;SDS011;18622;51.998;10.440;2023-11-18T11:32:35;7.37;;;4.00;;
32106;SDS011;18622;51.998;10.440;2023-11-18T11:35:06;5.40;;;3.83;;
32106;SDS011;18622;51.998;10.440;2023-11-18T11:37:37;6.30;;;4.00;;
32106;SDS011;18622;51.998;10.440;2023-11-18T11:40:08;5.12;;;3.52;;
32106;SDS011;18622;51.998;10.440;2023-11-18T11:42:42;5.10;;;3.55;;
32106;SDS011;18622;51.998;10.440;2023-11-18T11:45:07;10.83;;;4.53;;
32106;SDS011;18622;51.998;10.440;2023-11-18T11:47:37;5.37;;;3.77;;
32106;SDS011;18622;51.998;10.440;2023-11-18T11:52:37;5.12;;;3.08;;
32106;SDS011;18622;51.998;10.440;2023-11-18T11:55:29;4.13;;;3.00;;
32106;SDS011;18622;51.998;10.440;2023-11-18T11:58:04;4.47;;;3.08;;
32106;SDS011;18622;51.998;10.440;2023-11-18T12:00:33;5.80;;;4.03;;
32106;SDS011;18622;51.998;10.440;2023-11-18T12:03:01;7.20;;;4.07;;
32106;SDS011;18622;51.998;10.440;2023-11-18T12:05:33;5.92;;;4.10;;
32106;SDS011;18622;51.998;10.440;2023-11-18T12:08:01;5.97;;;4.20;;
32106;SDS011;18622;51.998;10.440;2023-11-18T12:10:31;6.40;;;2.60;;
32106;SDS011;18622;51.998;10.440;2023-11-18T12:13:08;5.40;;;3.27;;
32106;SDS011;18622;51.998;10.440;2023-11-18T12:15:49;5.00;;;3.80;;
32106;SDS011;18622;51.998;10.440;2023-11-18T12:18:23;5.28;;;3.85;;
32106;SDS011;18622;51.998;10.440;2023-11-18T12:20:51;9.20;;;4.10;;
32106;SDS011;18622;51.998;10.440;2023-11-18T12:23:22;5.37;;;3.80;;
32106;SDS011;18622;51.998;10.440;2023-11-18T12:25:50;6.30;;;4.30;;
32106;SDS011;18622;51.998;10.440;2023-11-18T12:28:27;6.80;;;3.70;;
32106;SDS011;18622;51.998;10.440;2023-11-18T12:31:03;4.03;;;1.93;;
32106;SDS011;18622;51.998;10.440;2023-11-18T12:42:02;2.73;;;1.40;;
32106;SDS011;18622;51.998;10.440;2023-11-18T12:44:52;3.40;;;2.03;;
32106;SDS011;18622;51.998;10.440;2023-11-18T12:47:14;2.40;;;1.40;;
32106;SDS011;18622;51.998;10.440;2023-11-18T12:49:47;2.17;;;1.60;;
32106;SDS011;18622;51.998;10.440;2023-11-18T12:52:21;2.40;;;1.83;;
32106;SDS011;18622;51.998;10.440;2023-11-18T12:54:49;3.20;;;2.05;;
32106;SDS011;18622;51.998;10.440;2023-11-18T12:57:22;3.50;;;1.70;;
32106;SDS011;18622;51.998;10.440;2023-11-18T12:59:49;2.90;;;1.60;;
32106;SDS011;18622;51.998;10.440;2023-11-18T13:02:17;1.63;;;1.40;;
32106;SDS011;18622;51.998;10.440;2023-11-18T13:04:47;3.17;;;1.45;;
32106;SDS011;18622;51.998;10.440;2023-11-18T13:07:15;3.20;;;1.23;;
32106;SDS011;18622;51.998;10.440;2023-11-18T13:09:44;2.67;;;1.50;;
32106;SDS011;18622;51.998;10.440;2023-11-18T13:12:13;2.10;;;1.43;;
32106;SDS011;18622;51.998;10.440;2023-11-18T13:14:44;2.77;;;1.85;;
32106;SDS011;18622;51.998;10.440;2023-11-18T13:17:14;3.97;;;2.13;;
32106;SDS011;18622;51.998;10.440;2023-11-18T13:22:11;3.40;;;2.17;;
32106;SDS011;18622;51.998;10.440;2023-11-18T13:24:40;1.62;;;1.22;;
32106;SDS011;18622;51.998;10.440;2023-11-18T13:27:15;4.33;;;2.17;;
32106;SDS011;18622;51.998;10.440;2023-11-18T13:29:46;3.93;;;2.17;;
32106;SDS011;18622;51.998;10.440;2023-11-18T13:32:19;7.93;;;4.83;;
32106;SDS011;18622;51.998;10.440;2023-11-18T13:34:51;7.42;;;4.62;;
32106;SDS011;18622;51.998;10.440;2023-11-18T13:37:20;6.60;;;4.83;;
32106;SDS011;18622;51.998;10.440;2023-11-18T13:39:57;4.73;;;2.73;;
32106;SDS011;18622;51.998;10.440;2023-11-18T13:42:26;2.83;;;1.80;;
32106;SDS011;18622;51.998;10.440;2023-11-18T13:45:02;5.55;;;3.27;;
32106;SDS011;18622;51.998;10.440;2023-11-18T13:47:35;3.97;;;2.53;;
32106;SDS011;18622;51.998;10.440;2023-11-18T13:50:06;4.57;;;2.70;;
32106;SDS011;18622;51.998;10.440;2023-11-18T13:52:36;3.73;;;2.87;;
32106;SDS011;18622;51.998;10.440;2023-11-18T13:55:05;6.37;;;2.72;;
32106;SDS011;18622;51.998;10.440;2023-11-18T13:57:34;4.33;;;2.57;;
32106;SDS011;18622;51.998;10.440;2023-11-18T14:00:02;4.73;;;2.63;;
32106;SDS011;18622;51.998;10.440;2023-11-18T14:02:31;7.00;;;2.50;;
32106;SDS011;18622;51.998;10.440;2023-11-18T14:04:59;3.27;;;2.37;;
32106;SDS011;18622;51.998;10.440;2023-11-18T14:07:27;5.47;;;2.37;;
32106;SDS011;18622;51.998;10.440;2023-11-18T14:09:56;4.30;;;2.65;;
32106;SDS011;18622;51.998;10.440;2023-11-18T14:12:25;4.80;;;2.72;;
32106;SDS011;18622;51.998;10.440;2023-11-18T14:14:53;4.37;;;2.63;;
32106;SDS011;18622;51.998;10.440;2023-11-18T14:17:21;6.80;;;3.57;;
32106;SDS011;18622;51.998;10.440;2023-11-18T14:19:49;5.43;;;2.80;;
32106;SDS011;18622;51.998;10.440;2023-11-18T14:22:18;5.17;;;2.87;;
32106;SDS011;18622;51.998;10.440;2023-11-18T14:24:45;5.10;;;2.70;;
32106;SDS011;18622;51.998;10.440;2023-11-18T14:27:13;4.23;;;2.70;;
32106;SDS011;18622;51.998;10.440;2023-11-18T14:29:41;6.27;;;2.53;;
32106;SDS011;18622;51.998;10.440;2023-11-18T14:32:09;3.77;;;2.40;;
32106;SDS011;18622;51.998;10.440;2023-11-18T14:34:37;4.00;;;2.20;;
32106;SDS011;18622;51.998;10.440;2023-11-18T14:37:05;5.17;;;3.93;;
32106;SDS011;18622;51.998;10.440;2023-11-18T14:39:32;6.00;;;2.53;;
32106;SDS011;18622;51.998;10.440;2023-11-18T14:42:02;6.55;;;2.67;;
32106;SDS011;18622;51.998;10.440;2023-11-18T14:44:30;7.40;;;3.00;;
32106;SDS011;18622;51.998;10.440;2023-11-18T14:46:58;6.03;;;2.33;;
32106;SDS011;18622;51.998;10.440;2023-11-18T14:49:26;4.97;;;2.40;;
32106;SDS011;18622;51.998;10.440;2023-11-18T14:51:54;4.57;;;2.47;;
32106;SDS011;18622;51.998;10.440;2023-11-18T14:54:22;4.25;;;2.12;;
32106;SDS011;18622;51.998;10.440;2023-11-18T14:56:50;8.50;;;1.80;;
32106;SDS011;18622;51.998;10.440;2023-11-18T14:59:18;3.57;;;2.20;;
32106;SDS011;18622;51.998;10.440;2023-11-18T15:01:47;4.03;;;2.25;;
32106;SDS011;18622;51.998;10.440;2023-11-18T15:04:15;4.83;;;2.87;;
32106;SDS011;18622;51.998;10.440;2023-11-18T15:06:43;3.70;;;2.40;;
32106;SDS011;18622;51.998;10.440;2023-11-18T15:09:11;3.73;;;2.30;;
32106;SDS011;18622;51.998;10.440;2023-11-18T15:11:40;5.12;;;2.72;;
32106;SDS011;18622;51.998;10.440;2023-11-18T15:14:08;4.43;;;3.30;;
32106;SDS011;18622;51.998;10.440;2023-11-18T15:16:38;5.87;;;3.07;;
32106;SDS011;18622;51.998;10.440;2023-11-18T15:19:05;3.53;;;2.47;;
32106;SDS011;18622;51.998;10.440;2023-11-18T15:21:33;4.50;;;3.17;;
32106;SDS011;18622;51.998;10.440;2023-11-18T15:24:01;3.70;;;2.20;;
32106;SDS011;18622;51.998;10.440;2023-11-18T15:26:29;6.85;;;2.17;;
32106;SDS011;18622;51.998;10.440;2023-11-18T15:29:01;11.37;;;5.73;;
32106;SDS011;18622;51.998;10.440;2023-11-18T15:31:31;4.08;;;2.90;;
32106;SDS011;18622;51.998;10.440;2023-11-18T15:33:59;4.97;;;2.70;;
32106;SDS011;18622;51.998;10.440;2023-11-18T15:36:27;5.00;;;3.50;;
32106;SDS011;18622;51.998;10.440;2023-11-18T15:38:55;6.60;;;3.10;;
32106;SDS011;18622;51.998;10.440;2023-11-18T15:41:24;8.75;;;3.00;;
32106;SDS011;18622;51.998;10.440;2023-11-18T15:43:52;5.20;;;2.50;;
32106;SDS011;18622;51.998;10.440;2023-11-18T15:46:20;6.17;;;2.40;;
32106;SDS011;18622;51.998;10.440;2023-11-18T15:48:47;7.77;;;2.50;;
32106;SDS011;18622;51.998;10.440;2023-11-18T15:51:15;5.00;;;3.13;;
32106;SDS011;18622;51.998;10.440;2023-11-18T15:53:45;12.40;;;5.65;;
32106;SDS011;18622;51.998;10.440;2023-11-18T15:56:13;8.83;;;4.87;;
32106;SDS011;18622;51.998;10.440;2023-11-18T15:58:41;5.40;;;4.05;;
32106;SDS011;18622;51.998;10.440;2023-11-18T16:01:09;6.70;;;4.93;;
32106;SDS011;18622;51.998;10.440;2023-11-18T16:03:36;8.17;;;4.50;;
32106;SDS011;18622;51.998;10.440;2023-11-18T16:06:04;7.67;;;3.70;;
32106;SDS011;18622;51.998;10.440;2023-11-18T16:08:32;6.53;;;3.30;;
32106;SDS011;18622;51.998;10.440;2023-11-18T16:11:02;5.92;;;3.83;;
32106;SDS011;18622;51.998;10.440;2023-11-18T16:13:30;4.78;;;3.50;;
32106;SDS011;18622;51.998;10.440;2023-11-18T16:16:00;7.20;;;2.85;;
32106;SDS011;18622;51.998;10.440;2023-11-18T16:18:28;2.83;;;2.27;;
32106;SDS011;18622;51.998;10.440;2023-11-18T16:20:56;7.23;;;2.67;;
32106;SDS011;18622;51.998;10.440;2023-11-18T16:23:24;3.77;;;2.40;;
32106;SDS011;18622;51.998;10.440;2023-11-18T16:25:53;5.25;;;2.95;;
32106;SDS011;18622;51.998;10.440;2023-11-18T16:28:21;3.90;;;2.33;;
32106;SDS011;18622;51.998;10.440;2023-11-18T16:30:49;3.40;;;2.30;;
32106;SDS011;18622;51.998;10.440;2023-11-18T16:33:18;3.27;;;2.65;;
32106;SDS011;18622;51.998;10.440;2023-11-18T16:35:46;2.87;;;2.17;;
32106;SDS011;18622;51.998;10.440;2023-11-18T16:38:14;4.17;;;2.50;;
32106;SDS011;18622;51.998;10.440;2023-11-18T16:40:42;3.47;;;2.40;;
32106;SDS011;18622;51.998;10.440;2023-11-18T16:43:09;5.07;;;2.20;;
32106;SDS011;18622;51.998;10.440;2023-11-18T16:45:37;6.73;;;2.80;;
32106;SDS011;18622;51.998;10.440;2023-11-18T16:48:06;4.90;;;2.02;;
32106;SDS011;18622;51.998;10.440;2023-11-18T16:50:33;2.73;;;2.07;;
32106;SDS011;18622;51.998;10.440;2023-11-18T16:53:04;2.60;;;1.80;;
32106;SDS011;18622;51.998;10.440;2023-11-18T16:55:32;1.50;;;1.40;;
32106;SDS011;18622;51.998;10.440;2023-11-18T16:58:00;3.02;;;1.75;;
32106;SDS011;18622;51.998;10.440;2023-11-18T17:00:28;1.63;;;1.53;;
32106;SDS011;18622;51.998;10.440;2023-11-18T17:02:58;1.82;;;1.60;;
32106;SDS011;18622;51.998;10.440;2023-11-18T17:05:26;1.63;;;1.23;;
32106;SDS011;18622;51.998;10.440;2023-11-18T17:07:55;3.52;;;1.60;;
32106;SDS011;18622;51.998;10.440;2023-11-18T17:10:22;1.93;;;1.60;;
32106;SDS011;18622;51.998;10.440;2023-11-18T17:12:50;2.00;;;1.70;;
32106;SDS011;18622;51.998;10.440;2023-11-18T17:15:19;2.37;;;1.17;;
32106;SDS011;18622;51.998;10.440;2023-11-18T17:17:48;2.90;;;1.70;;
32106;SDS011;18622;51.998;10.440;2023-11-18T17:20:21;2.73;;;1.70;;
32106;SDS011;18622;51.998;10.440;2023-11-18T17:22:49;1.40;;;1.13;;
32106;SDS011;18622;51.998;10.440;2023-11-18T17:25:18;2.17;;;1.77;;
32106;SDS011;18622;51.998;10.440;2023-11-18T17:27:48;1.67;;;1.53;;
32106;SDS011;18622;51.998;10.440;2023-11-18T17:30:18;1.67;;;1.57;;
32106;SDS011;18622;51.998;10.440;2023-11-18T17:32:46;2.13;;;1.40;;
32106;SDS011;18622;51.998;10.440;2023-11-18T17:35:17;2.47;;;1.40;;
32106;SDS011;18622;51.998;10.440;2023-11-18T17:37:46;1.67;;;1.37;;
32106;SDS011;18622;51.998;10.440;2023-11-18T17:40:14;2.98;;;1.37;;
32106;SDS011;18622;51.998;10.440;2023-11-18T17:42:42;3.87;;;1.70;;
32106;SDS011;18622;51.998;10.440;2023-11-18T17:45:11;1.77;;;1.20;;
32106;SDS011;18622;51.998;10.440;2023-11-18T17:47:39;1.70;;;1.42;;
32106;SDS011;18622;51.998;10.440;2023-11-18T17:50:08;2.42;;;1.40;;
32106;SDS011;18622;51.998;10.440;2023-11-18T17:52:38;2.92;;;1.52;;
32106;SDS011;18622;51.998;10.440;2023-11-18T17:57:45;1.93;;;1.30;;
32106;SDS011;18622;51.998;10.440;2023-11-18T18:00:13;6.07;;;3.30;;
32106;SDS011;18622;51.998;10.440;2023-11-18T18:02:49;4.53;;;3.10;;
32106;SDS011;18622;51.998;10.440;2023-11-18T18:05:17;2.45;;;1.75;;
32106;SDS011;18622;51.998;10.440;2023-11-18T18:07:45;4.00;;;2.13;;
32106;SDS011;18622;51.998;10.440;2023-11-18T18:10:13;2.13;;;1.40;;
32106;SDS011;18622;51.998;10.440;2023-11-18T18:12:42;2.08;;;1.10;;
32106;SDS011;18622;51.998;10.440;2023-11-18T18:15:11;7.05;;;3.50;;
32106;SDS011;18622;51.998;10.440;2023-11-18T18:17:39;3.00;;;2.27;;
32106;SDS011;18622;51.998;10.440;2023-11-18T18:20:08;2.42;;;1.92;;
32106;SDS011;18622;51.998;10.440;2023-11-18T18:22:36;9.90;;;5.67;;
32106;SDS011;18622;51.998;10.440;2023-11-18T18:25:04;13.30;;;5.65;;
32106;SDS011;18622;51.998;10.440;2023-11-18T18:27:34;2.15;;;1.32;;
32106;SDS011;18622;51.998;10.440;2023-11-18T18:30:02;5.60;;;3.00;;
32106;SDS011;18622;51.998;10.440;2023-11-18T18:32:31;7.43;;;3.53;;
32106;SDS011;18622;51.998;10.440;2023-11-18T18:34:59;4.07;;;1.77;;
32106;SDS011;18622;51.998;10.440;2023-11-18T18:37:27;5.23;;;2.90;;
32106;SDS011;18622;51.998;10.440;2023-11-18T18:39:55;8.20;;;5.43;;
32106;SDS011;18622;51.998;10.440;2023-11-18T18:42:22;2.70;;;2.20;;
32106;SDS011;18622;51.998;10.440;2023-11-18T18:44:50;2.63;;;2.10;;
32106;SDS011;18622;51.998;10.440;2023-11-18T18:47:23;4.70;;;2.50;;
32106;SDS011;18622;51.998;10.440;2023-11-18T18:49:50;4.10;;;2.17;;
32106;SDS011;18622;51.998;10.440;2023-11-18T18:52:18;1.30;;;0.50;;
32106;SDS011;18622;51.998;10.440;2023-11-18T18:54:46;0.77;;;0.53;;
32106;SDS011;18622;51.998;10.440;2023-11-18T18:57:14;1.92;;;1.20;;
32106;SDS011;18622;51.998;10.440;2023-11-18T18:59:43;2.62;;;1.27;;
32106;SDS011;18622;51.998;10.440;2023-11-18T19:02:11;1.93;;;1.30;;
32106;SDS011;18622;51.998;10.440;2023-11-18T19:04:39;6.33;;;3.67;;
32106;SDS011;18622;51.998;10.440;2023-11-18T19:07:07;1.20;;;0.90;;
32106;SDS011;18622;51.998;10.440;2023-11-18T19:09:36;1.43;;;0.53;;
32106;SDS011;18622;51.998;10.440;2023-11-18T19:12:04;3.50;;;0.70;;
32106;SDS011;18622;51.998;10.440;2023-11-18T19:17:00;0.40;;;0.40;;
32106;SDS011;18622;51.998;10.440;2023-11-18T19:19:29;1.10;;;0.40;;
32106;SDS011;18622;51.998;10.440;2023-11-18T19:21:57;1.10;;;0.50;;
32106;SDS011;18622;51.998;10.440;2023-11-18T19:24:25;0.53;;;0.30;;
32106;SDS011;18622;51.998;10.440;2023-11-18T19:26:53;4.73;;;0.60;;
32106;SDS011;18622;51.998;10.440;2023-11-18T19:29:22;0.30;;;0.30;;
32106;SDS011;18622;51.998;10.440;2023-11-18T19:31:50;0.30;;;0.30;;
32106;SDS011;18622;51.998;10.440;2023-11-18T19:34:18;0.57;;;0.50;;
32106;SDS011;18622;51.998;10.440;2023-11-18T19:36:47;1.30;;;0.70;;
32106;SDS011;18622;51.998;10.440;2023-11-18T19:39:15;0.50;;;0.50;;
32106;SDS011;18622;51.998;10.440;2023-11-18T19:41:43;0.30;;;0.30;;
32106;SDS011;18622;51.998;10.440;2023-11-18T19:44:11;1.85;;;0.82;;
32106;SDS011;18622;51.998;10.440;2023-11-18T19:46:39;1.17;;;0.80;;